sensor_id;sensor_type;location;lat;lon;timestamp;temperature;humidity
26952;DHT22;14507;52.418;13.398;2024-02-14T00:01:36;3.40;99.90
26952;DHT22;14507;52.418;13.398;2024-02-14T00:04:03;3.50;99.90
26952;DHT22;14507;52.418;13.398;2024-02-14T00:06:29;3.50;99.90
26952;DHT22;14507;52.418;13.398;2024-02-14T00:09:00;3.50;99.90
26952;DHT22;14507;52.418;13.398;2024-02-14T00:11:25;3.50;99.90
26952;DHT22;14507;52.418;13.398;2024-02-14T00:13:51;3.60;99.90
26952;DHT22;14507;52.418;13.398;2024-02-14T00:16:17;3.60;99.90
26952;DHT22;14507;52.418;13.398;2024-02-14T00:18:42;3.50;99.90
26952;DHT22;14507;52.418;13.398;2024-02-14T00:21:08;3.50;99.90
26952;DHT22;14507;52.418;13.398;2024-02-14T00:23:33;3.50;99.90
26952;DHT22;14507;52.418;13.398;2024-02-14T00:25:59;3.50;99.90
26952;DHT22;14507;52.418;13.398;2024-02-14T00:28:25;3.50;99.90
26952;DHT22;14507;52.418;13.398;2024-02-14T00:30:52;3.50;99.90
26952;DHT22;14507;52.418;13.398;2024-02-14T00:33:17;3.50;99.90
26952;DHT22;14507;52.418;13.398;2024-02-14T00:35:45;3.50;99.90
26952;DHT22;14507;52.418;13.398;2024-02-14T00:38:11;3.50;99.90
26952;DHT22;14507;52.418;13.398;2024-02-14T00:40:36;3.60;99.90
26952;DHT22;14507;52.418;13.398;2024-02-14T00:43:02;3.60;99.90
26952;DHT22;14507;52.418;13.398;2024-02-14T00:45:28;3.50;99.90
26952;DHT22;14507;52.418;13.398;2024-02-14T00:47:53;3.60;99.90
26952;DHT22;14507;52.418;13.398;2024-02-14T00:50:19;3.50;99.90
26952;DHT22;14507;52.418;13.398;2024-02-14T00:52:44;3.60;99.90
26952;DHT22;14507;52.418;13.398;2024-02-14T00:55:10;3.50;99.90
26952;DHT22;14507;52.418;13.398;2024-02-14T00:57:36;3.70;99.90
26952;DHT22;14507;52.418;13.398;2024-02-14T01:00:02;3.60;99.90
26952;DHT22;14507;52.418;13.398;2024-02-14T01:02:29;3.60;99.90
26952;DHT22;14507;52.418;13.398;2024-02-14T01:04:55;3.70;99.90
26952;DHT22;14507;52.418;13.398;2024-02-14T01:07:21;3.60;99.90
26952;DHT22;14507;52.418;13.398;2024-02-14T01:09:46;3.60;99.90
26952;DHT22;14507;52.418;13.398;2024-02-14T01:12:12;3.70;99.90
26952;DHT22;14507;52.418;13.398;2024-02-14T01:14:38;3.60;99.90
26952;DHT22;14507;52.418;13.398;2024-02-14T01:17:03;3.50;99.90
26952;DHT22;14507;52.418;13.398;2024-02-14T01:19:29;4.00;99.90
26952;DHT22;14507;52.418;13.398;2024-02-14T01:21:55;3.50;99.90
26952;DHT22;14507;52.418;13.398;2024-02-14T01:24:22;3.50;99.90
26952;DHT22;14507;52.418;13.398;2024-02-14T01:26:48;3.50;99.90
26952;DHT22;14507;52.418;13.398;2024-02-14T01:29:16;3.50;99.90
26952;DHT22;14507;52.418;13.398;2024-02-14T01:31:42;3.50;99.90
26952;DHT22;14507;52.418;13.398;2024-02-14T01:34:08;3.50;99.90
26952;DHT22;14507;52.418;13.398;2024-02-14T01:36:33;3.60;99.90
26952;DHT22;14507;52.418;13.398;2024-02-14T01:38:59;3.50;99.90
26952;DHT22;14507;52.418;13.398;2024-02-14T01:41:24;3.50;99.90
26952;DHT22;14507;52.418;13.398;2024-02-14T01:43:50;3.60;99.90
26952;DHT22;14507;52.418;13.398;2024-02-14T01:46:16;3.50;99.90
26952;DHT22;14507;52.418;13.398;2024-02-14T01:48:42;3.60;99.90
26952;DHT22;14507;52.418;13.398;2024-02-14T01:51:10;3.60;99.90
26952;DHT22;14507;52.418;13.398;2024-02-14T01:53:37;3.60;99.90
26952;DHT22;14507;52.418;13.398;2024-02-14T01:56:04;3.60;99.90
26952;DHT22;14507;52.418;13.398;2024-02-14T01:58:31;3.70;99.90
26952;DHT22;14507;52.418;13.398;2024-02-14T02:00:58;3.70;99.90
26952;DHT22;14507;52.418;13.398;2024-02-14T02:03:25;3.60;99.90
26952;DHT22;14507;52.418;13.398;2024-02-14T02:05:52;3.50;99.90
26952;DHT22;14507;52.418;13.398;2024-02-14T02:08:18;3.50;99.90
26952;DHT22;14507;52.418;13.398;2024-02-14T02:10:43;3.40;99.90
26952;DHT22;14507;52.418;13.398;2024-02-14T02:13:09;3.50;99.90
26952;DHT22;14507;52.418;13.398;2024-02-14T02:15:35;3.40;99.90
26952;DHT22;14507;52.418;13.398;2024-02-14T02:18:03;3.50;99.90
26952;DHT22;14507;52.418;13.398;2024-02-14T02:20:30;3.50;99.90
26952;DHT22;14507;52.418;13.398;2024-02-14T02:22:57;3.50;99.90
26952;DHT22;14507;52.418;13.398;2024-02-14T02:25:23;3.50;99.90
26952;DHT22;14507;52.418;13.398;2024-02-14T02:27:50;3.50;99.90
26952;DHT22;14507;52.418;13.398;2024-02-14T02:30:15;3.50;99.90
26952;DHT22;14507;52.418;13.398;2024-02-14T02:32:42;3.50;99.90
26952;DHT22;14507;52.418;13.398;2024-02-14T02:35:08;3.50;99.90
26952;DHT22;14507;52.418;13.398;2024-02-14T02:37:35;3.40;99.90
26952;DHT22;14507;52.418;13.398;2024-02-14T02:40:01;3.40;99.90
26952;DHT22;14507;52.418;13.398;2024-02-14T02:42:26;3.50;99.90
26952;DHT22;14507;52.418;13.398;2024-02-14T02:44:52;3.50;99.90
26952;DHT22;14507;52.418;13.398;2024-02-14T02:47:18;3.30;99.90
26952;DHT22;14507;52.418;13.398;2024-02-14T02:49:44;3.40;99.90
26952;DHT22;14507;52.418;13.398;2024-02-14T02:52:13;3.40;99.90
26952;DHT22;14507;52.418;13.398;2024-02-14T02:54:40;3.40;99.90
26952;DHT22;14507;52.418;13.398;2024-02-14T02:57:07;3.60;99.90
26952;DHT22;14507;52.418;13.398;2024-02-14T02:59:34;3.40;99.90
26952;DHT22;14507;52.418;13.398;2024-02-14T03:02:00;3.40;99.90
26952;DHT22;14507;52.418;13.398;2024-02-14T03:04:26;3.90;99.90
26952;DHT22;14507;52.418;13.398;2024-02-14T03:06:52;3.40;99.90
26952;DHT22;14507;52.418;13.398;2024-02-14T03:09:17;3.50;99.90
26952;DHT22;14507;52.418;13.398;2024-02-14T03:11:46;3.30;99.90
26952;DHT22;14507;52.418;13.398;2024-02-14T03:14:13;3.40;99.90
26952;DHT22;14507;52.418;13.398;2024-02-14T03:16:39;3.50;99.90
26952;DHT22;14507;52.418;13.398;2024-02-14T03:19:04;3.30;99.90
26952;DHT22;14507;52.418;13.398;2024-02-14T03:21:31;3.30;99.90
26952;DHT22;14507;52.418;13.398;2024-02-14T03:23:58;3.60;99.90
26952;DHT22;14507;52.418;13.398;2024-02-14T03:26:24;3.30;99.90
26952;DHT22;14507;52.418;13.398;2024-02-14T03:28:49;3.30;99.90
26952;DHT22;14507;52.418;13.398;2024-02-14T03:31:15;3.30;99.90
26952;DHT22;14507;52.418;13.398;2024-02-14T03:33:41;3.30;99.90
26952;DHT22;14507;52.418;13.398;2024-02-14T03:36:07;3.30;99.90
26952;DHT22;14507;52.418;13.398;2024-02-14T03:38:33;3.30;99.90
26952;DHT22;14507;52.418;13.398;2024-02-14T03:40:59;3.30;99.90
26952;DHT22;14507;52.418;13.398;2024-02-14T03:43:25;3.30;99.90
26952;DHT22;14507;52.418;13.398;2024-02-14T03:45:50;3.20;99.90
26952;DHT22;14507;52.418;13.398;2024-02-14T03:48:17;3.30;99.90
26952;DHT22;14507;52.418;13.398;2024-02-14T03:50:43;3.20;99.90
26952;DHT22;14507;52.418;13.398;2024-02-14T03:53:09;3.30;99.90
26952;DHT22;14507;52.418;13.398;2024-02-14T03:55:37;3.20;99.90
26952;DHT22;14507;52.418;13.398;2024-02-14T03:58:03;3.20;99.90
26952;DHT22;14507;52.418;13.398;2024-02-14T04:00:30;3.20;99.90
26952;DHT22;14507;52.418;13.398;2024-02-14T04:02:56;3.10;99.90
26952;DHT22;14507;52.418;13.398;2024-02-14T04:05:28;3.20;99.90
26952;DHT22;14507;52.418;13.398;2024-02-14T04:07:57;3.10;99.90
26952;DHT22;14507;52.418;13.398;2024-02-14T04:10:23;3.10;99.90
26952;DHT22;14507;52.418;13.398;2024-02-14T04:12:49;3.10;99.90
26952;DHT22;14507;52.418;13.398;2024-02-14T04:15:15;3.10;99.90
26952;DHT22;14507;52.418;13.398;2024-02-14T04:17:41;3.10;99.90
26952;DHT22;14507;52.418;13.398;2024-02-14T04:20:07;3.10;99.90
26952;DHT22;14507;52.418;13.398;2024-02-14T04:22:35;3.10;99.90
26952;DHT22;14507;52.418;13.398;2024-02-14T04:25:01;3.20;99.90
26952;DHT22;14507;52.418;13.398;2024-02-14T04:27:27;3.50;99.90
26952;DHT22;14507;52.418;13.398;2024-02-14T04:29:53;3.20;99.90
26952;DHT22;14507;52.418;13.398;2024-02-14T04:32:19;3.30;99.90
26952;DHT22;14507;52.418;13.398;2024-02-14T04:34:45;3.30;99.90
26952;DHT22;14507;52.418;13.398;2024-02-14T04:37:13;3.30;99.90
26952;DHT22;14507;52.418;13.398;2024-02-14T04:39:40;3.30;99.90
26952;DHT22;14507;52.418;13.398;2024-02-14T04:42:06;3.40;99.90
26952;DHT22;14507;52.418;13.398;2024-02-14T04:44:32;3.40;99.90
26952;DHT22;14507;52.418;13.398;2024-02-14T04:46:58;3.60;99.90
26952;DHT22;14507;52.418;13.398;2024-02-14T04:49:24;3.50;99.90
26952;DHT22;14507;52.418;13.398;2024-02-14T04:51:53;3.50;99.90
26952;DHT22;14507;52.418;13.398;2024-02-14T04:54:19;3.50;99.90
26952;DHT22;14507;52.418;13.398;2024-02-14T04:56:44;3.50;99.90
26952;DHT22;14507;52.418;13.398;2024-02-14T04:59:12;3.50;99.90
26952;DHT22;14507;52.418;13.398;2024-02-14T05:01:38;3.40;99.90
26952;DHT22;14507;52.418;13.398;2024-02-14T05:04:05;3.40;99.90
26952;DHT22;14507;52.418;13.398;2024-02-14T05:06:32;3.40;99.90
26952;DHT22;14507;52.418;13.398;2024-02-14T05:08:58;3.40;99.90
26952;DHT22;14507;52.418;13.398;2024-02-14T05:11:24;3.40;99.90
26952;DHT22;14507;52.418;13.398;2024-02-14T05:13:49;3.40;99.90
26952;DHT22;14507;52.418;13.398;2024-02-14T05:16:21;3.40;99.90
26952;DHT22;14507;52.418;13.398;2024-02-14T05:18:47;3.40;99.90
26952;DHT22;14507;52.418;13.398;2024-02-14T05:21:13;3.40;99.90
26952;DHT22;14507;52.418;13.398;2024-02-14T05:23:39;3.40;99.90
26952;DHT22;14507;52.418;13.398;2024-02-14T05:26:05;3.40;99.90
26952;DHT22;14507;52.418;13.398;2024-02-14T05:28:31;3.40;99.90
26952;DHT22;14507;52.418;13.398;2024-02-14T05:30:58;3.40;99.90
26952;DHT22;14507;52.418;13.398;2024-02-14T05:33:24;3.50;99.90
26952;DHT22;14507;52.418;13.398;2024-02-14T05:35:50;3.50;99.90
26952;DHT22;14507;52.418;13.398;2024-02-14T05:38:16;3.50;99.90
26952;DHT22;14507;52.418;13.398;2024-02-14T05:40:42;3.40;99.90
26952;DHT22;14507;52.418;13.398;2024-02-14T05:43:10;3.40;99.90
26952;DHT22;14507;52.418;13.398;2024-02-14T05:45:35;3.40;99.90
26952;DHT22;14507;52.418;13.398;2024-02-14T05:48:01;3.40;99.90
26952;DHT22;14507;52.418;13.398;2024-02-14T05:50:27;3.40;99.90
26952;DHT22;14507;52.418;13.398;2024-02-14T05:52:56;3.40;99.90
26952;DHT22;14507;52.418;13.398;2024-02-14T05:55:25;3.40;99.90
26952;DHT22;14507;52.418;13.398;2024-02-14T05:57:53;3.40;99.90
26952;DHT22;14507;52.418;13.398;2024-02-14T06:00:20;3.50;99.90
26952;DHT22;14507;52.418;13.398;2024-02-14T06:02:47;3.50;99.90
26952;DHT22;14507;52.418;13.398;2024-02-14T06:05:13;3.50;99.90
26952;DHT22;14507;52.418;13.398;2024-02-14T06:07:40;3.50;99.90
26952;DHT22;14507;52.418;13.398;2024-02-14T06:10:06;3.50;99.90
26952;DHT22;14507;52.418;13.398;2024-02-14T06:12:32;3.50;99.90
26952;DHT22;14507;52.418;13.398;2024-02-14T06:15:01;3.60;99.90
26952;DHT22;14507;52.418;13.398;2024-02-14T06:17:27;3.50;99.90
26952;DHT22;14507;52.418;13.398;2024-02-14T06:19:53;3.50;99.90
26952;DHT22;14507;52.418;13.398;2024-02-14T06:22:19;3.60;99.90
26952;DHT22;14507;52.418;13.398;2024-02-14T06:24:46;3.60;99.90
26952;DHT22;14507;52.418;13.398;2024-02-14T06:27:14;3.60;99.90
26952;DHT22;14507;52.418;13.398;2024-02-14T06:29:42;3.60;99.90
26952;DHT22;14507;52.418;13.398;2024-02-14T06:32:08;3.60;99.90
26952;DHT22;14507;52.418;13.398;2024-02-14T06:34:33;3.70;99.90
26952;DHT22;14507;52.418;13.398;2024-02-14T06:36:59;3.70;99.90
26952;DHT22;14507;52.418;13.398;2024-02-14T06:39:24;3.70;99.90
26952;DHT22;14507;52.418;13.398;2024-02-14T06:41:50;3.70;99.90
26952;DHT22;14507;52.418;13.398;2024-02-14T06:44:16;3.70;99.90
26952;DHT22;14507;52.418;13.398;2024-02-14T06:46:41;3.80;99.90
26952;DHT22;14507;52.418;13.398;2024-02-14T06:49:08;3.80;99.90
26952;DHT22;14507;52.418;13.398;2024-02-14T06:51:34;3.80;99.90
26952;DHT22;14507;52.418;13.398;2024-02-14T06:53:59;3.80;99.90
26952;DHT22;14507;52.418;13.398;2024-02-14T06:56:25;3.80;99.90
26952;DHT22;14507;52.418;13.398;2024-02-14T06:58:51;3.80;99.90
26952;DHT22;14507;52.418;13.398;2024-02-14T07:01:19;3.90;99.90
26952;DHT22;14507;52.418;13.398;2024-02-14T07:03:48;4.00;99.90
26952;DHT22;14507;52.418;13.398;2024-02-14T07:06:15;4.00;99.90
26952;DHT22;14507;52.418;13.398;2024-02-14T07:08:41;4.00;99.90
26952;DHT22;14507;52.418;13.398;2024-02-14T07:11:07;4.00;99.90
26952;DHT22;14507;52.418;13.398;2024-02-14T07:13:32;4.10;99.90
26952;DHT22;14507;52.418;13.398;2024-02-14T07:15:58;4.10;99.90
26952;DHT22;14507;52.418;13.398;2024-02-14T07:18:23;4.10;99.90
26952;DHT22;14507;52.418;13.398;2024-02-14T07:20:49;4.20;99.90
26952;DHT22;14507;52.418;13.398;2024-02-14T07:23:15;4.30;99.90
26952;DHT22;14507;52.418;13.398;2024-02-14T07:25:40;4.30;99.90
26952;DHT22;14507;52.418;13.398;2024-02-14T07:28:06;4.30;99.90
26952;DHT22;14507;52.418;13.398;2024-02-14T07:30:32;4.30;99.90
26952;DHT22;14507;52.418;13.398;2024-02-14T07:32:57;4.40;99.90
26952;DHT22;14507;52.418;13.398;2024-02-14T07:35:23;4.40;99.90
26952;DHT22;14507;52.418;13.398;2024-02-14T07:37:49;4.50;99.90
26952;DHT22;14507;52.418;13.398;2024-02-14T07:40:14;4.60;99.90
26952;DHT22;14507;52.418;13.398;2024-02-14T07:42:40;4.70;99.90
26952;DHT22;14507;52.418;13.398;2024-02-14T07:45:06;4.80;99.90
26952;DHT22;14507;52.418;13.398;2024-02-14T07:47:31;4.80;99.90
26952;DHT22;14507;52.418;13.398;2024-02-14T07:49:57;4.80;99.90
26952;DHT22;14507;52.418;13.398;2024-02-14T07:52:23;4.90;99.90
26952;DHT22;14507;52.418;13.398;2024-02-14T07:54:53;5.00;99.90
26952;DHT22;14507;52.418;13.398;2024-02-14T07:57:21;5.00;99.90
26952;DHT22;14507;52.418;13.398;2024-02-14T07:59:47;5.00;99.90
26952;DHT22;14507;52.418;13.398;2024-02-14T08:02:13;5.10;99.90
26952;DHT22;14507;52.418;13.398;2024-02-14T08:04:39;5.10;99.90
26952;DHT22;14507;52.418;13.398;2024-02-14T08:07:04;5.10;99.90
26952;DHT22;14507;52.418;13.398;2024-02-14T08:09:30;5.10;99.90
26952;DHT22;14507;52.418;13.398;2024-02-14T08:11:56;5.20;99.90
26952;DHT22;14507;52.418;13.398;2024-02-14T08:14:21;5.20;99.90
26952;DHT22;14507;52.418;13.398;2024-02-14T08:16:47;5.30;99.90
26952;DHT22;14507;52.418;13.398;2024-02-14T08:19:13;5.30;99.90
26952;DHT22;14507;52.418;13.398;2024-02-14T08:21:38;5.40;99.90
26952;DHT22;14507;52.418;13.398;2024-02-14T08:24:04;5.40;99.90
26952;DHT22;14507;52.418;13.398;2024-02-14T08:26:30;5.50;99.90
26952;DHT22;14507;52.418;13.398;2024-02-14T08:28:57;5.50;99.90
26952;DHT22;14507;52.418;13.398;2024-02-14T08:31:23;5.60;99.90
26952;DHT22;14507;52.418;13.398;2024-02-14T08:33:49;5.60;99.90
26952;DHT22;14507;52.418;13.398;2024-02-14T08:36:15;5.70;99.90
26952;DHT22;14507;52.418;13.398;2024-02-14T08:38:42;5.70;99.90
26952;DHT22;14507;52.418;13.398;2024-02-14T08:41:07;5.70;99.90
26952;DHT22;14507;52.418;13.398;2024-02-14T08:43:33;5.70;99.90
26952;DHT22;14507;52.418;13.398;2024-02-14T08:45:59;5.80;99.90
26952;DHT22;14507;52.418;13.398;2024-02-14T08:48:25;5.80;99.90
26952;DHT22;14507;52.418;13.398;2024-02-14T08:50:52;5.80;99.90
26952;DHT22;14507;52.418;13.398;2024-02-14T08:53:18;5.70;99.90
26952;DHT22;14507;52.418;13.398;2024-02-14T08:55:44;5.90;99.90
26952;DHT22;14507;52.418;13.398;2024-02-14T08:58:09;5.80;99.90
26952;DHT22;14507;52.418;13.398;2024-02-14T09:00:36;5.90;99.90
26952;DHT22;14507;52.418;13.398;2024-02-14T09:03:04;5.90;99.90
26952;DHT22;14507;52.418;13.398;2024-02-14T09:05:30;6.00;99.90
26952;DHT22;14507;52.418;13.398;2024-02-14T09:07:56;6.20;99.90
26952;DHT22;14507;52.418;13.398;2024-02-14T09:10:22;6.20;99.90
26952;DHT22;14507;52.418;13.398;2024-02-14T09:12:48;6.20;99.90
26952;DHT22;14507;52.418;13.398;2024-02-14T09:15:14;6.30;99.90
26952;DHT22;14507;52.418;13.398;2024-02-14T09:17:40;6.30;99.90
26952;DHT22;14507;52.418;13.398;2024-02-14T09:20:07;6.40;99.90
26952;DHT22;14507;52.418;13.398;2024-02-14T09:22:38;6.40;99.90
26952;DHT22;14507;52.418;13.398;2024-02-14T09:25:04;6.40;99.90
26952;DHT22;14507;52.418;13.398;2024-02-14T09:27:30;6.40;99.90
26952;DHT22;14507;52.418;13.398;2024-02-14T09:29:56;6.40;99.90
26952;DHT22;14507;52.418;13.398;2024-02-14T09:32:21;6.40;99.90
26952;DHT22;14507;52.418;13.398;2024-02-14T09:34:50;6.50;99.90
26952;DHT22;14507;52.418;13.398;2024-02-14T09:37:16;6.50;99.90
26952;DHT22;14507;52.418;13.398;2024-02-14T09:39:42;6.60;99.90
26952;DHT22;14507;52.418;13.398;2024-02-14T09:42:13;6.60;99.90
26952;DHT22;14507;52.418;13.398;2024-02-14T09:44:40;6.70;99.90
26952;DHT22;14507;52.418;13.398;2024-02-14T09:47:07;6.70;99.90
26952;DHT22;14507;52.418;13.398;2024-02-14T09:49:35;6.80;99.90
26952;DHT22;14507;52.418;13.398;2024-02-14T09:52:05;6.80;99.90
26952;DHT22;14507;52.418;13.398;2024-02-14T09:54:32;6.80;99.90
26952;DHT22;14507;52.418;13.398;2024-02-14T09:57:02;6.70;99.90
26952;DHT22;14507;52.418;13.398;2024-02-14T09:59:29;6.80;99.90
26952;DHT22;14507;52.418;13.398;2024-02-14T10:01:54;6.80;99.90
26952;DHT22;14507;52.418;13.398;2024-02-14T10:04:20;6.80;99.90
26952;DHT22;14507;52.418;13.398;2024-02-14T10:06:47;6.80;99.90
26952;DHT22;14507;52.418;13.398;2024-02-14T10:09:19;6.80;99.90
26952;DHT22;14507;52.418;13.398;2024-02-14T10:11:45;6.80;99.90
26952;DHT22;14507;52.418;13.398;2024-02-14T10:14:12;6.80;99.90
26952;DHT22;14507;52.418;13.398;2024-02-14T10:16:38;6.90;99.90
26952;DHT22;14507;52.418;13.398;2024-02-14T10:19:03;6.90;99.90
26952;DHT22;14507;52.418;13.398;2024-02-14T10:21:29;6.90;99.90
26952;DHT22;14507;52.418;13.398;2024-02-14T10:24:01;7.00;99.90
26952;DHT22;14507;52.418;13.398;2024-02-14T10:26:28;7.10;99.90
26952;DHT22;14507;52.418;13.398;2024-02-14T10:28:56;7.20;99.90
26952;DHT22;14507;52.418;13.398;2024-02-14T10:31:25;7.20;99.90
26952;DHT22;14507;52.418;13.398;2024-02-14T10:33:52;7.20;99.90
26952;DHT22;14507;52.418;13.398;2024-02-14T10:36:20;7.20;99.90
26952;DHT22;14507;52.418;13.398;2024-02-14T10:38:47;7.30;99.90
26952;DHT22;14507;52.418;13.398;2024-02-14T10:41:16;7.30;99.90
26952;DHT22;14507;52.418;13.398;2024-02-14T10:43:43;7.40;99.90
26952;DHT22;14507;52.418;13.398;2024-02-14T10:46:18;7.50;99.90
26952;DHT22;14507;52.418;13.398;2024-02-14T10:48:45;7.60;99.90
26952;DHT22;14507;52.418;13.398;2024-02-14T10:51:15;7.60;99.90
26952;DHT22;14507;52.418;13.398;2024-02-14T10:53:44;7.70;99.90
26952;DHT22;14507;52.418;13.398;2024-02-14T10:56:17;7.70;99.90
26952;DHT22;14507;52.418;13.398;2024-02-14T10:58:46;7.60;99.90
26952;DHT22;14507;52.418;13.398;2024-02-14T11:01:13;7.70;99.90
26952;DHT22;14507;52.418;13.398;2024-02-14T11:03:40;7.70;99.90
26952;DHT22;14507;52.418;13.398;2024-02-14T11:06:06;7.80;99.90
26952;DHT22;14507;52.418;13.398;2024-02-14T11:08:32;7.80;99.90
26952;DHT22;14507;52.418;13.398;2024-02-14T11:10:59;7.90;99.90
26952;DHT22;14507;52.418;13.398;2024-02-14T11:13:29;7.90;99.90
26952;DHT22;14507;52.418;13.398;2024-02-14T11:15:57;8.00;99.90
26952;DHT22;14507;52.418;13.398;2024-02-14T11:18:26;8.00;99.90
26952;DHT22;14507;52.418;13.398;2024-02-14T11:20:52;8.00;99.90
26952;DHT22;14507;52.418;13.398;2024-02-14T11:23:22;8.00;99.90
26952;DHT22;14507;52.418;13.398;2024-02-14T11:25:47;8.00;99.90
26952;DHT22;14507;52.418;13.398;2024-02-14T11:28:14;8.00;99.90
26952;DHT22;14507;52.418;13.398;2024-02-14T11:30:41;8.00;99.90
26952;DHT22;14507;52.418;13.398;2024-02-14T11:33:17;8.00;99.90
26952;DHT22;14507;52.418;13.398;2024-02-14T11:35:45;8.00;99.90
26952;DHT22;14507;52.418;13.398;2024-02-14T11:38:11;8.00;99.90
26952;DHT22;14507;52.418;13.398;2024-02-14T11:40:37;8.00;99.90
26952;DHT22;14507;52.418;13.398;2024-02-14T11:43:05;8.10;99.90
26952;DHT22;14507;52.418;13.398;2024-02-14T11:45:35;8.20;99.90
26952;DHT22;14507;52.418;13.398;2024-02-14T11:48:04;8.20;99.90
26952;DHT22;14507;52.418;13.398;2024-02-14T11:50:31;8.10;99.90
26952;DHT22;14507;52.418;13.398;2024-02-14T11:52:59;8.20;99.90
26952;DHT22;14507;52.418;13.398;2024-02-14T11:55:28;8.20;99.90
26952;DHT22;14507;52.418;13.398;2024-02-14T11:57:54;8.20;99.90
26952;DHT22;14507;52.418;13.398;2024-02-14T12:00:20;8.20;99.90
26952;DHT22;14507;52.418;13.398;2024-02-14T12:02:46;8.20;99.90
26952;DHT22;14507;52.418;13.398;2024-02-14T12:05:12;8.20;99.90
26952;DHT22;14507;52.418;13.398;2024-02-14T12:07:39;8.20;99.90
26952;DHT22;14507;52.418;13.398;2024-02-14T12:10:05;8.20;99.90
26952;DHT22;14507;52.418;13.398;2024-02-14T12:12:31;8.20;99.90
26952;DHT22;14507;52.418;13.398;2024-02-14T12:14:57;8.30;99.90
26952;DHT22;14507;52.418;13.398;2024-02-14T12:17:26;8.20;99.90
26952;DHT22;14507;52.418;13.398;2024-02-14T12:19:52;8.20;99.90
26952;DHT22;14507;52.418;13.398;2024-02-14T12:22:18;8.30;99.90
26952;DHT22;14507;52.418;13.398;2024-02-14T12:24:45;8.30;99.90
26952;DHT22;14507;52.418;13.398;2024-02-14T12:27:11;8.30;99.90
26952;DHT22;14507;52.418;13.398;2024-02-14T12:29:36;8.20;99.90
26952;DHT22;14507;52.418;13.398;2024-02-14T12:32:04;8.30;99.90
26952;DHT22;14507;52.418;13.398;2024-02-14T12:34:32;8.20;99.90
26952;DHT22;14507;52.418;13.398;2024-02-14T12:36:58;8.30;99.90
26952;DHT22;14507;52.418;13.398;2024-02-14T12:39:26;8.30;99.90
26952;DHT22;14507;52.418;13.398;2024-02-14T12:41:52;8.30;99.90
26952;DHT22;14507;52.418;13.398;2024-02-14T12:44:18;8.30;99.90
26952;DHT22;14507;52.418;13.398;2024-02-14T12:46:44;8.30;99.90
26952;DHT22;14507;52.418;13.398;2024-02-14T12:49:12;8.30;99.90
26952;DHT22;14507;52.418;13.398;2024-02-14T12:51:38;8.40;99.90
26952;DHT22;14507;52.418;13.398;2024-02-14T12:54:04;8.50;99.90
26952;DHT22;14507;52.418;13.398;2024-02-14T12:56:31;8.50;99.90
26952;DHT22;14507;52.418;13.398;2024-02-14T12:58:57;8.50;99.90
26952;DHT22;14507;52.418;13.398;2024-02-14T13:01:24;8.60;99.90
26952;DHT22;14507;52.418;13.398;2024-02-14T13:03:50;8.60;99.90
26952;DHT22;14507;52.418;13.398;2024-02-14T13:06:16;8.60;99.90
26952;DHT22;14507;52.418;13.398;2024-02-14T13:08:41;8.60;99.90
26952;DHT22;14507;52.418;13.398;2024-02-14T13:11:07;8.60;99.90
26952;DHT22;14507;52.418;13.398;2024-02-14T13:13:36;8.60;99.90
26952;DHT22;14507;52.418;13.398;2024-02-14T13:16:01;8.60;99.90
26952;DHT22;14507;52.418;13.398;2024-02-14T13:18:27;8.70;99.90
26952;DHT22;14507;52.418;13.398;2024-02-14T13:20:53;8.70;99.90
26952;DHT22;14507;52.418;13.398;2024-02-14T13:23:25;8.70;99.90
26952;DHT22;14507;52.418;13.398;2024-02-14T13:25:51;8.70;99.90
26952;DHT22;14507;52.418;13.398;2024-02-14T13:28:17;8.70;99.90
26952;DHT22;14507;52.418;13.398;2024-02-14T13:30:42;8.70;99.90
26952;DHT22;14507;52.418;13.398;2024-02-14T13:33:09;8.80;99.90
26952;DHT22;14507;52.418;13.398;2024-02-14T13:35:37;8.80;99.90
26952;DHT22;14507;52.418;13.398;2024-02-14T13:38:05;8.80;99.90
26952;DHT22;14507;52.418;13.398;2024-02-14T13:40:35;8.90;99.90
26952;DHT22;14507;52.418;13.398;2024-02-14T13:43:01;8.80;99.90
26952;DHT22;14507;52.418;13.398;2024-02-14T13:45:43;8.80;99.90
26952;DHT22;14507;52.418;13.398;2024-02-14T13:48:09;8.90;99.90
26952;DHT22;14507;52.418;13.398;2024-02-14T13:50:35;8.80;99.90
26952;DHT22;14507;52.418;13.398;2024-02-14T13:53:01;8.90;99.90
26952;DHT22;14507;52.418;13.398;2024-02-14T13:55:27;8.80;99.90
26952;DHT22;14507;52.418;13.398;2024-02-14T13:57:52;8.80;99.90
26952;DHT22;14507;52.418;13.398;2024-02-14T14:00:18;8.80;99.90
26952;DHT22;14507;52.418;13.398;2024-02-14T14:02:47;8.80;99.90
26952;DHT22;14507;52.418;13.398;2024-02-14T14:05:12;8.80;99.90
26952;DHT22;14507;52.418;13.398;2024-02-14T14:07:39;8.80;99.90
26952;DHT22;14507;52.418;13.398;2024-02-14T14:10:05;8.90;99.90
26952;DHT22;14507;52.418;13.398;2024-02-14T14:12:31;8.80;99.90
26952;DHT22;14507;52.418;13.398;2024-02-14T14:14:57;8.90;99.90
26952;DHT22;14507;52.418;13.398;2024-02-14T14:17:23;8.90;99.90
26952;DHT22;14507;52.418;13.398;2024-02-14T14:19:49;8.80;99.90
26952;DHT22;14507;52.418;13.398;2024-02-14T14:22:16;8.90;99.90
26952;DHT22;14507;52.418;13.398;2024-02-14T14:24:42;8.80;99.90
26952;DHT22;14507;52.418;13.398;2024-02-14T14:27:08;8.90;99.90
26952;DHT22;14507;52.418;13.398;2024-02-14T14:29:42;8.90;99.90
26952;DHT22;14507;52.418;13.398;2024-02-14T14:32:11;8.90;99.90
26952;DHT22;14507;52.418;13.398;2024-02-14T14:34:37;8.90;99.90
26952;DHT22;14507;52.418;13.398;2024-02-14T14:37:03;9.00;99.90
26952;DHT22;14507;52.418;13.398;2024-02-14T14:39:28;9.00;99.90
26952;DHT22;14507;52.418;13.398;2024-02-14T14:41:56;9.00;99.90
26952;DHT22;14507;52.418;13.398;2024-02-14T14:44:24;9.10;99.90
26952;DHT22;14507;52.418;13.398;2024-02-14T14:46:50;9.10;99.90
26952;DHT22;14507;52.418;13.398;2024-02-14T14:49:16;9.10;99.90
26952;DHT22;14507;52.418;13.398;2024-02-14T14:51:42;9.10;99.90
26952;DHT22;14507;52.418;13.398;2024-02-14T14:54:08;9.10;99.90
26952;DHT22;14507;52.418;13.398;2024-02-14T14:56:34;9.20;99.90
26952;DHT22;14507;52.418;13.398;2024-02-14T14:58:59;9.20;99.90
26952;DHT22;14507;52.418;13.398;2024-02-14T15:01:32;9.20;99.90
26952;DHT22;14507;52.418;13.398;2024-02-14T15:04:00;9.20;99.90
26952;DHT22;14507;52.418;13.398;2024-02-14T15:06:25;9.30;99.90
26952;DHT22;14507;52.418;13.398;2024-02-14T15:08:51;9.30;99.90
26952;DHT22;14507;52.418;13.398;2024-02-14T15:11:17;9.30;99.90
26952;DHT22;14507;52.418;13.398;2024-02-14T15:13:44;9.40;99.90
26952;DHT22;14507;52.418;13.398;2024-02-14T15:16:13;9.40;99.90
26952;DHT22;14507;52.418;13.398;2024-02-14T15:18:39;9.40;99.90
26952;DHT22;14507;52.418;13.398;2024-02-14T15:21:06;9.40;99.90
26952;DHT22;14507;52.418;13.398;2024-02-14T15:23:32;9.40;99.90
26952;DHT22;14507;52.418;13.398;2024-02-14T15:25:58;9.40;99.90